createdAt,value
2022-09-01T00:02:21.491Z,76.51
2022-09-01T00:05:23.683Z,76.47
2022-09-01T00:08:25.543Z,75.86
2022-09-01T00:11:28.548Z,75.91
2022-09-01T00:14:33.251Z,76.06
2022-09-01T00:17:35.685Z,76.18
2022-09-01T00:20:37.464Z,75.99
2022-09-01T00:23:39.813Z,75.77
2022-09-01T00:26:41.871Z,76.41
2022-09-01T00:29:44.152Z,75.73
2022-09-01T00:32:46.895Z,75.46
2022-09-01T00:35:48.774Z,75.65
2022-09-01T00:38:51.446Z,75.39
2022-09-01T00:41:53.496Z,74.77
2022-09-01T00:44:55.185Z,75.03
2022-09-01T00:47:57.347Z,74.96
2022-09-01T00:51:01.318Z,75.23
2022-09-01T00:54:04.053Z,75.44
2022-09-01T00:57:06.475Z,74.93
2022-09-01T01:00:11.589Z,75.60
2022-09-01T01:03:14.382Z,75.41
2022-09-01T01:06:17.158Z,75.49
2022-09-01T01:09:21.988Z,75.73
2022-09-01T01:12:23.875Z,75.23
2022-09-01T01:15:25.699Z,75.08
2022-09-01T01:18:27.487Z,74.71
2022-09-01T01:22:05.714Z,74.70
2022-09-01T01:25:07.916Z,74.33
2022-09-01T01:28:31.096Z,74.71
2022-09-01T01:31:33.766Z,74.75
2022-09-01T01:34:35.518Z,74.69
2022-09-01T01:37:37.253Z,74.17
2022-09-01T01:40:40.746Z,74.94
2022-09-01T01:43:42.896Z,74.50
2022-09-01T01:46:50.188Z,74.94
2022-09-01T01:49:53.130Z,74.91
2022-09-01T01:52:58.609Z,75.19
2022-09-01T01:56:02.356Z,74.97
2022-09-01T01:59:16.536Z,74.99
2022-09-01T02:02:18.709Z,74.84
2022-09-01T02:05:25.457Z,75.10
2022-09-01T02:08:27.765Z,74.70
2022-09-01T02:11:37.850Z,74.24
2022-09-01T02:14:40.623Z,74.27
2022-09-01T02:17:45.716Z,74.29
2022-09-01T02:20:49.516Z,74.39
2022-09-01T02:24:02.017Z,73.76
2022-09-01T02:27:06.410Z,74.24
2022-09-01T02:30:10.382Z,74.60
2022-09-01T02:33:19.139Z,74.61
2022-09-01T02:36:25.485Z,74.13
2022-09-01T02:39:29.660Z,74.24
2022-09-01T02:42:31.830Z,74.69
2022-09-01T02:45:34.359Z,75.04
2022-09-01T02:48:39.367Z,74.54
2022-09-01T02:51:44.303Z,74.98
2022-09-01T02:54:49.049Z,75.06
2022-09-01T02:57:57.105Z,74.91
2022-09-01T03:00:59.673Z,75.35
2022-09-01T03:04:05.628Z,75.00
2022-09-01T03:07:08.765Z,75.26
2022-09-01T03:10:10.521Z,75.56
2022-09-01T03:13:18.122Z,75.41
2022-09-01T03:16:20.476Z,75.14
2022-09-01T03:19:22.302Z,74.96
2022-09-01T03:22:24.420Z,75.36
2022-09-01T03:25:27.612Z,75.34
2022-09-01T03:28:29.869Z,75.24
2022-09-01T03:31:32.099Z,75.29
2022-09-01T03:34:36.935Z,74.51
2022-09-01T03:37:39.662Z,75.09
2022-09-01T03:40:41.439Z,75.63
2022-09-01T03:43:46.899Z,75.20
2022-09-01T03:46:49.420Z,75.19
2022-09-01T03:49:51.798Z,75.01
2022-09-01T03:52:58.919Z,74.99
2022-09-01T03:56:04.166Z,74.89
2022-09-01T03:59:07.651Z,74.88
2022-09-01T04:02:09.942Z,75.06
2022-09-01T04:05:11.815Z,74.61
2022-09-01T04:08:14.012Z,74.77
2022-09-01T04:11:24.085Z,74.65
2022-09-01T04:14:30.514Z,74.28
2022-09-01T04:17:51.169Z,74.56
2022-09-01T04:20:59.767Z,74.29
2022-09-01T04:24:05.210Z,73.96
2022-09-01T04:27:09.028Z,74.11
2022-09-01T04:30:12.223Z,74.71
2022-09-01T04:33:18.635Z,74.61
2022-09-01T04:36:34.082Z,74.77
2022-09-01T04:39:37.025Z,74.33
2022-09-01T04:42:39.852Z,74.32
2022-09-01T04:45:43.142Z,73.78
2022-09-01T04:48:45.990Z,73.19
2022-09-01T04:51:53.905Z,72.78
2022-09-01T04:54:58.175Z,72.31
2022-09-01T04:58:08.292Z,71.74
2022-09-01T05:01:23.261Z,71.98
2022-09-01T05:04:27.729Z,71.74
2022-09-01T05:07:30.119Z,70.82
2022-09-01T05:10:36.735Z,70.06
2022-09-01T05:13:49.235Z,70.48
2022-09-01T05:16:56.362Z,69.58
2022-09-01T05:19:58.553Z,69.81
2022-09-01T05:23:01.870Z,69.37
2022-09-01T05:26:06.425Z,69.22
2022-09-01T05:29:13.366Z,68.91
2022-09-01T05:32:16.140Z,68.67
2022-09-01T05:35:18.846Z,68.05
2022-09-01T05:38:20.795Z,67.37
2022-09-01T05:41:23.935Z,67.48
2022-09-01T05:44:25.747Z,67.05
2022-09-01T05:47:29.716Z,66.73
2022-09-01T05:50:31.759Z,65.71
2022-09-01T05:53:34.224Z,65.72
2022-09-01T05:56:44.142Z,65.17
2022-09-01T05:59:54.096Z,65.12
2022-09-01T06:02:58.691Z,65.18
2022-09-01T06:06:08.981Z,65.52
2022-09-01T06:09:12.069Z,65.12
2022-09-01T06:12:23.526Z,63.91
2022-09-01T06:15:27.227Z,63.42
2022-09-01T06:18:29.984Z,62.50
2022-09-01T06:21:38.481Z,61.88
2022-09-01T06:24:40.999Z,61.08
2022-09-01T06:27:48.337Z,60.02
2022-09-01T06:30:51.461Z,58.47
2022-09-01T06:33:55.903Z,56.77
2022-09-01T06:36:58.012Z,56.63
2022-09-01T06:39:59.858Z,56.07
2022-09-01T06:43:07.879Z,55.94
2022-09-01T06:46:12.046Z,55.83
2022-09-01T06:49:13.918Z,55.35
2022-09-01T06:52:16.074Z,55.62
2022-09-01T06:55:18.211Z,54.70
2022-09-01T06:58:21.416Z,54.29
2022-09-01T07:01:27.806Z,55.05
2022-09-01T07:04:31.514Z,54.12
2022-09-01T07:08:04.690Z,53.95
2022-09-01T07:18:25.932Z,54.16
2022-09-01T07:21:41.988Z,54.07
2022-09-01T07:25:12.229Z,52.63
2022-09-01T07:28:39.828Z,52.48
2022-09-01T07:32:41.141Z,53.08
2022-09-01T07:45:47.199Z,50.75
2022-09-01T07:52:15.543Z,50.12
2022-09-01T07:55:29.253Z,49.31
2022-09-01T07:58:31.493Z,48.42
2022-09-01T08:01:38.007Z,48.18
2022-09-01T08:04:40.271Z,49.27
2022-09-01T08:07:57.902Z,50.19
2022-09-01T08:11:08.054Z,50.73
2022-09-01T08:14:10.679Z,51.38
2022-09-01T08:20:45.178Z,51.81
2022-09-01T08:24:11.239Z,52.00
2022-09-01T08:27:13.033Z,51.66
2022-09-01T08:30:16.043Z,50.94
2022-09-01T08:33:19.027Z,49.67
2022-09-01T08:36:24.804Z,49.12
2022-09-01T08:39:27.787Z,49.14
2022-09-01T08:42:42.835Z,48.85
2022-09-01T08:45:53.656Z,49.04
2022-09-01T08:52:47.598Z,46.13
2022-09-01T08:55:55.230Z,45.55
2022-09-01T09:02:16.559Z,42.56
2022-09-01T09:05:18.477Z,41.83
2022-09-01T09:08:23.168Z,40.39
2022-09-01T09:11:37.356Z,40.08
2022-09-01T09:14:55.430Z,40.96
2022-09-01T09:18:20.268Z,41.34
2022-09-01T09:21:37.034Z,39.75
2022-09-01T09:24:48.339Z,38.83
2022-09-01T09:28:00.445Z,37.27
2022-09-01T09:31:37.596Z,37.52
2022-09-01T09:34:41.842Z,36.55
2022-09-01T09:37:43.723Z,37.30
2022-09-01T09:41:20.003Z,36.50
2022-09-01T09:44:29.941Z,35.95
2022-09-01T09:47:43.518Z,36.15
2022-09-01T09:50:46.554Z,34.65
2022-09-01T09:53:49.600Z,35.33
2022-09-01T09:57:14.577Z,34.03
2022-09-01T10:00:27.857Z,35.09
2022-09-01T10:03:51.637Z,34.38
2022-09-01T10:06:54.408Z,34.05
2022-09-01T10:10:00.628Z,33.69
2022-09-01T10:13:03.224Z,34.13
2022-09-01T10:16:10.489Z,33.64
2022-09-01T10:19:16.342Z,34.46
2022-09-01T10:22:19.080Z,33.80
2022-09-01T10:25:24.906Z,32.68
2022-09-01T10:28:31.085Z,32.60
2022-09-01T10:31:34.540Z,32.15
2022-09-01T10:34:41.967Z,32.13
2022-09-01T10:37:46.304Z,32.20
2022-09-01T10:41:07.777Z,31.66
2022-09-01T10:44:11.700Z,31.51
2022-09-01T10:47:37.958Z,31.64
2022-09-01T10:50:40.152Z,31.75
2022-09-01T10:53:49.043Z,33.74
2022-09-01T10:56:53.988Z,31.66
2022-09-01T10:59:58.405Z,31.30
2022-09-01T11:03:42.084Z,32.74
2022-09-01T11:07:13.863Z,31.47
2022-09-01T11:10:55.810Z,31.57
2022-09-01T11:14:01.492Z,32.02
2022-09-01T11:17:23.183Z,31.43
2022-09-01T11:20:37.676Z,31.22
2022-09-01T11:23:41.319Z,30.68
2022-09-01T11:26:49.888Z,31.31
2022-09-01T11:29:58.774Z,30.89
2022-09-01T11:33:14.153Z,31.79
2022-09-01T11:36:20.075Z,30.43
2022-09-01T11:39:35.781Z,31.67
2022-09-01T11:42:47.066Z,31.32
2022-09-01T11:46:17.637Z,31.53
2022-09-01T11:49:32.309Z,30.55
2022-09-01T11:52:38.981Z,30.08
2022-09-01T11:55:42.693Z,28.64
2022-09-01T11:58:44.857Z,30.04
2022-09-01T12:01:46.744Z,29.51
2022-09-01T12:04:50.801Z,29.28
2022-09-01T12:07:53.181Z,30.81
2022-09-01T12:11:09.928Z,29.93
2022-09-01T12:14:19.399Z,30.16
2022-09-01T12:17:21.361Z,31.10
2022-09-01T12:20:28.840Z,30.84
2022-09-01T12:23:36.124Z,31.47
2022-09-01T12:26:39.311Z,29.97
2022-09-01T12:29:42.307Z,30.12
2022-09-01T12:32:44.449Z,30.89
2022-09-01T12:35:47.023Z,30.87
2022-09-01T12:38:55.933Z,30.92
2022-09-01T12:42:17.009Z,31.20
2022-09-01T12:45:56.621Z,32.98
2022-09-01T12:49:19.937Z,31.25
2022-09-01T12:52:26.351Z,32.60
2022-09-01T12:59:26.184Z,31.83
2022-09-01T13:02:46.116Z,33.00
2022-09-01T13:05:52.426Z,31.35
2022-09-01T13:08:54.523Z,30.45
2022-09-01T13:12:16.107Z,31.01
2022-09-01T13:15:18.753Z,31.19
2022-09-01T13:18:23.358Z,31.38
2022-09-01T13:21:25.277Z,30.74
2022-09-01T13:24:31.147Z,31.85
2022-09-01T13:27:33.433Z,31.44
2022-09-01T13:30:35.400Z,30.89
2022-09-01T13:36:59.144Z,30.55
2022-09-01T13:40:01.795Z,30.70
2022-09-01T13:43:04.769Z,30.05
2022-09-01T13:46:06.776Z,30.16
2022-09-01T13:52:33.240Z,30.14
2022-09-01T13:55:39.630Z,29.28
2022-09-01T13:58:41.428Z,30.57
2022-09-01T14:01:43.500Z,30.08
2022-09-01T14:04:45.298Z,29.45
2022-09-01T14:07:47.336Z,29.36
2022-09-01T14:10:51.294Z,28.55
2022-09-01T14:13:53.205Z,30.28
2022-09-01T14:16:55.030Z,30.23
2022-09-01T14:19:57.562Z,30.16
2022-09-01T14:22:59.668Z,30.12
2022-09-01T14:26:01.614Z,31.27
2022-09-01T14:29:03.640Z,32.42
2022-09-01T14:32:07.910Z,31.75
2022-09-01T14:35:09.868Z,31.18
2022-09-01T14:38:13.475Z,31.60
2022-09-01T14:41:17.911Z,30.46
2022-09-01T14:44:19.764Z,30.82
2022-09-01T14:47:24.822Z,29.67
2022-09-01T14:50:28.984Z,29.17
2022-09-01T14:53:31.925Z,29.63
2022-09-01T14:56:33.912Z,30.00
2022-09-01T14:59:37.478Z,29.97
2022-09-01T15:02:41.122Z,30.13
2022-09-01T15:05:43.655Z,28.21
2022-09-01T15:08:45.943Z,29.44
2022-09-01T15:11:47.813Z,28.93
2022-09-01T15:14:49.548Z,30.46
2022-09-01T15:17:51.404Z,30.42
2022-09-01T15:20:53.965Z,30.86
2022-09-01T15:23:55.828Z,31.45
2022-09-01T15:26:57.890Z,31.25
2022-09-01T15:29:59.626Z,30.68
2022-09-01T15:33:02.286Z,30.69
2022-09-01T15:36:04.399Z,30.36
2022-09-01T15:39:08.142Z,32.87
2022-09-01T15:42:09.970Z,31.67
2022-09-01T15:45:18.737Z,30.54
2022-09-01T15:48:20.626Z,30.82
2022-09-01T15:51:22.358Z,31.78
2022-09-01T15:54:30.211Z,29.33
2022-09-01T15:57:32.384Z,29.98
2022-09-01T16:00:35.338Z,30.10
2022-09-01T16:03:37.206Z,29.74
2022-09-01T16:06:39.510Z,30.52
2022-09-01T16:09:41.298Z,29.61
2022-09-01T16:12:44.701Z,29.81
2022-09-01T16:16:12.323Z,29.43
2022-09-01T16:19:51.918Z,31.26
2022-09-01T16:22:58.145Z,30.85
2022-09-01T16:26:00.968Z,30.26
2022-09-01T16:29:12.519Z,29.77
2022-09-01T16:32:16.126Z,29.96
2022-09-01T16:35:21.017Z,29.53
2022-09-01T16:38:28.995Z,29.52
2022-09-01T16:42:02.206Z,29.47
2022-09-01T16:45:18.820Z,29.33
2022-09-01T16:48:43.633Z,30.46
2022-09-01T16:51:57.690Z,30.47
2022-09-01T16:55:22.996Z,31.05
2022-09-01T16:58:40.207Z,31.75
2022-09-01T17:02:09.611Z,32.57
2022-09-01T17:05:24.842Z,32.51
2022-09-01T17:08:34.312Z,32.50
2022-09-01T17:12:18.125Z,33.88
2022-09-01T17:15:28.786Z,33.41
2022-09-01T17:18:47.886Z,33.31
2022-09-01T17:21:57.107Z,33.74
2022-09-01T17:25:04.854Z,33.42
2022-09-01T17:28:15.105Z,34.66
2022-09-01T17:31:29.893Z,34.67
2022-09-01T17:34:51.808Z,35.22
2022-09-01T17:37:56.082Z,34.50
2022-09-01T17:41:34.294Z,34.69
2022-09-01T17:45:02.121Z,34.95
2022-09-01T17:48:18.472Z,35.78
2022-09-01T17:54:59.553Z,35.97
2022-09-01T17:58:22.642Z,36.66
2022-09-01T18:01:31.906Z,36.54
2022-09-01T18:04:47.311Z,36.59
2022-09-01T18:08:04.450Z,37.14
2022-09-01T18:11:12.027Z,36.75
2022-09-01T18:14:21.836Z,37.32
2022-09-01T18:17:31.580Z,37.40
2022-09-01T18:20:45.053Z,37.79
2022-09-01T18:23:50.731Z,37.29
2022-09-01T18:26:53.074Z,37.87
2022-09-01T18:29:54.956Z,38.04
2022-09-01T18:33:04.479Z,38.44
2022-09-01T18:36:42.244Z,38.39
2022-09-01T18:39:55.721Z,39.22
2022-09-01T18:43:22.435Z,38.96
2022-09-01T18:46:36.043Z,39.41
2022-09-01T18:49:43.680Z,39.67
2022-09-01T18:53:18.316Z,39.95
2022-09-01T18:56:45.904Z,40.46
2022-09-01T19:00:01.375Z,40.67
2022-09-01T19:03:10.658Z,40.70
2022-09-01T19:06:34.072Z,41.04
2022-09-01T19:09:50.964Z,41.07
2022-09-01T19:13:15.554Z,41.92
2022-09-01T19:16:39.042Z,42.63
2022-09-01T19:20:01.952Z,42.59
2022-09-01T19:23:28.121Z,42.98
2022-09-01T19:26:37.179Z,42.92
2022-09-01T19:29:53.074Z,42.94
2022-09-01T19:32:57.310Z,42.68
2022-09-01T19:36:06.298Z,43.13
2022-09-01T19:39:13.028Z,43.12
2022-09-01T19:42:46.094Z,43.43
2022-09-01T19:46:03.874Z,43.54
2022-09-01T19:49:44.157Z,43.68
2022-09-01T19:53:00.668Z,44.13
2022-09-01T19:56:07.267Z,44.57
2022-09-01T19:59:14.848Z,44.90
2022-09-01T20:02:51.519Z,45.22
2022-09-01T20:06:00.339Z,45.95
2022-09-01T20:09:12.783Z,46.02
2022-09-01T20:12:32.364Z,46.57
2022-09-01T20:15:47.908Z,46.55
2022-09-01T20:18:55.103Z,46.75
2022-09-01T20:22:10.609Z,46.97
2022-09-01T20:25:15.375Z,47.25
2022-09-01T20:28:45.667Z,47.69
2022-09-01T20:31:58.744Z,47.92
2022-09-01T20:35:07.874Z,48.07
2022-09-01T20:38:46.071Z,48.36
2022-09-01T20:42:01.935Z,48.38
2022-09-01T20:45:17.611Z,48.99
2022-09-01T20:48:26.029Z,48.99
2022-09-01T20:51:57.492Z,49.47
2022-09-01T20:55:26.194Z,49.92
2022-09-01T20:58:37.301Z,50.33
2022-09-01T21:01:56.012Z,50.17
2022-09-01T21:05:06.155Z,50.14
2022-09-01T21:08:28.028Z,50.68
2022-09-01T21:11:50.982Z,50.83
2022-09-01T21:14:58.370Z,50.84
2022-09-01T21:18:19.411Z,51.76
2022-09-01T21:21:41.339Z,51.95
2022-09-01T21:24:43.543Z,51.95
2022-09-01T21:27:51.279Z,51.82
2022-09-01T21:30:55.196Z,52.36
2022-09-01T21:33:57.055Z,52.26
2022-09-01T21:36:59.031Z,53.00
2022-09-01T21:40:00.935Z,52.47
2022-09-01T21:43:06.894Z,53.00
2022-09-01T21:46:10.185Z,52.74
2022-09-01T21:49:14.219Z,53.24
2022-09-01T21:52:16.420Z,52.93
2022-09-01T21:55:22.735Z,52.75
2022-09-01T21:58:24.947Z,53.36
2022-09-01T22:01:31.763Z,53.47
2022-09-01T22:04:37.033Z,54.19
2022-09-01T22:07:41.330Z,54.13
2022-09-01T22:10:46.595Z,54.35
2022-09-01T22:13:49.774Z,54.32
2022-09-01T22:16:52.248Z,54.74
2022-09-01T22:19:54.092Z,54.79
2022-09-01T22:23:01.735Z,55.25
2022-09-01T22:26:04.751Z,55.40
2022-09-01T22:29:07.119Z,55.42
2022-09-01T22:32:09.215Z,55.20
2022-09-01T22:35:12.359Z,55.33
2022-09-01T22:38:14.901Z,55.19
2022-09-01T22:41:22.736Z,55.17
2022-09-01T22:44:24.850Z,55.92
2022-09-01T22:47:26.570Z,56.05
2022-09-01T22:50:28.674Z,55.78
2022-09-01T22:53:31.022Z,55.45
2022-09-01T22:56:35.921Z,56.39
2022-09-01T22:59:37.672Z,56.14
2022-09-01T23:02:39.634Z,56.05
2022-09-01T23:05:43.019Z,56.19
2022-09-01T23:08:45.121Z,56.43
2022-09-01T23:11:47.860Z,56.39
2022-09-01T23:14:49.762Z,56.37
2022-09-01T23:17:51.501Z,56.29
2022-09-01T23:20:53.249Z,56.30
2022-09-01T23:23:58.728Z,56.60
2022-09-01T23:27:00.733Z,56.72
2022-09-01T23:30:03.865Z,56.67
2022-09-01T23:33:05.604Z,57.82
2022-09-01T23:36:10.347Z,58.38
2022-09-01T23:39:12.551Z,58.02
2022-09-01T23:42:14.241Z,58.43
2022-09-01T23:45:16.041Z,58.41
2022-09-01T23:48:19.225Z,58.76
2022-09-01T23:51:23.028Z,59.04
2022-09-01T23:54:24.825Z,59.18
2022-09-01T23:57:26.623Z,59.16
